createdAt,value
2022-09-28T00:02:21.322Z,0.90
2022-09-28T00:04:51.823Z,0.90
2022-09-28T00:07:20.023Z,1.00
2022-09-28T00:09:48.313Z,0.80
2022-09-28T00:12:16.805Z,1.07
2022-09-28T00:14:45.977Z,1.10
2022-09-28T00:17:16.038Z,1.00
2022-09-28T00:19:45.300Z,0.93
2022-09-28T00:22:15.333Z,0.90
2022-09-28T00:24:44.732Z,0.80
2022-09-28T00:27:13.383Z,0.80
2022-09-28T00:29:41.819Z,0.70
2022-09-28T00:32:15.851Z,0.93
2022-09-28T00:34:46.177Z,0.73
2022-09-28T00:37:16.732Z,0.80
2022-09-28T00:39:45.098Z,0.70
2022-09-28T00:42:16.547Z,0.70
2022-09-28T00:44:49.057Z,1.00
2022-09-28T00:47:39.683Z,1.10
2022-09-28T00:50:14.514Z,0.73
2022-09-28T00:52:49.465Z,0.60
2022-09-28T00:55:22.019Z,0.70
2022-09-28T00:57:55.455Z,0.70
2022-09-28T01:00:24.605Z,0.70
2022-09-28T01:02:53.478Z,0.70
2022-09-28T01:05:24.392Z,0.63
2022-09-28T01:07:54.650Z,0.80
2022-09-28T01:10:24.054Z,0.77
2022-09-28T01:12:52.952Z,0.67
2022-09-28T01:15:22.768Z,0.80
2022-09-28T01:18:02.113Z,0.93
2022-09-28T01:20:40.625Z,0.73
2022-09-28T01:23:46.283Z,0.50
2022-09-28T01:26:43.630Z,0.70
2022-09-28T01:29:18.824Z,0.90
2022-09-28T01:31:52.883Z,0.70
2022-09-28T01:34:30.306Z,0.50
2022-09-28T01:37:02.255Z,0.70
2022-09-28T01:39:36.295Z,0.80
2022-09-28T01:42:13.890Z,0.70
2022-09-28T01:44:46.675Z,0.70
2022-09-28T01:47:18.652Z,0.50
2022-09-28T01:49:50.784Z,0.60
2022-09-28T01:52:24.879Z,1.47
2022-09-28T01:54:58.806Z,0.50
2022-09-28T01:57:33.744Z,0.90
2022-09-28T02:00:07.914Z,0.60
2022-09-28T02:02:40.368Z,0.80
2022-09-28T02:05:14.027Z,0.70
2022-09-28T02:07:46.471Z,1.63
2022-09-28T02:10:18.073Z,0.80
2022-09-28T02:12:49.196Z,0.70
2022-09-28T02:15:22.159Z,0.60
2022-09-28T02:17:51.351Z,0.70
2022-09-28T02:20:22.345Z,0.80
2022-09-28T02:22:52.938Z,0.80
2022-09-28T02:25:26.015Z,0.80
2022-09-28T02:27:59.781Z,0.67
2022-09-28T02:30:30.405Z,0.60
2022-09-28T02:33:04.191Z,0.60
2022-09-28T02:35:34.146Z,0.80
2022-09-28T02:38:02.750Z,0.73
2022-09-28T02:40:34.102Z,0.70
2022-09-28T02:43:14.023Z,0.60
2022-09-28T02:46:02.276Z,0.70
2022-09-28T02:49:00.138Z,0.80
2022-09-28T02:51:44.585Z,0.70
2022-09-28T02:54:31.082Z,0.60
2022-09-28T02:57:14.384Z,0.60
2022-09-28T02:59:51.837Z,0.70
2022-09-28T03:02:26.543Z,0.60
2022-09-28T03:05:10.858Z,0.60
2022-09-28T03:07:47.709Z,0.90
2022-09-28T03:10:20.657Z,0.90
2022-09-28T03:12:50.450Z,0.70
2022-09-28T03:15:25.744Z,1.00
2022-09-28T03:17:55.026Z,0.70
2022-09-28T03:20:23.229Z,0.80
2022-09-28T03:23:12.364Z,0.80
2022-09-28T03:25:41.543Z,0.70
2022-09-28T03:28:09.782Z,0.93
2022-09-28T03:30:39.444Z,0.50
2022-09-28T03:33:08.128Z,0.83
2022-09-28T03:35:36.478Z,0.77
2022-09-28T03:38:04.929Z,0.83
2022-09-28T03:40:33.269Z,0.87
2022-09-28T03:43:01.969Z,0.90
2022-09-28T03:45:30.322Z,0.60
2022-09-28T03:48:00.588Z,0.63
2022-09-28T03:50:29.097Z,0.83
2022-09-28T03:52:57.244Z,0.50
2022-09-28T03:55:25.393Z,0.70
2022-09-28T03:57:57.359Z,0.43
2022-09-28T04:00:25.712Z,0.80
2022-09-28T04:02:55.255Z,0.60
2022-09-28T04:05:25.352Z,0.77
2022-09-28T04:07:57.915Z,0.70
2022-09-28T04:10:26.493Z,0.50
2022-09-28T04:12:56.613Z,0.70
2022-09-28T04:15:25.860Z,0.57
2022-09-28T04:17:54.648Z,0.70
2022-09-28T04:20:24.706Z,0.70
2022-09-28T04:22:53.015Z,0.80
2022-09-28T04:25:21.244Z,1.00
2022-09-28T04:28:07.919Z,0.50
2022-09-28T04:30:36.265Z,0.60
2022-09-28T04:33:05.421Z,0.70
2022-09-28T04:35:35.446Z,0.67
2022-09-28T04:38:04.394Z,0.73
2022-09-28T04:40:32.940Z,0.67
2022-09-28T04:43:01.380Z,0.70
2022-09-28T04:45:29.988Z,0.57
2022-09-28T04:47:58.933Z,0.63
2022-09-28T04:50:36.548Z,0.80
2022-09-28T04:53:12.261Z,0.50
2022-09-28T04:55:42.089Z,0.60
2022-09-28T04:58:20.115Z,0.60
2022-09-28T05:01:01.530Z,0.70
2022-09-28T05:03:31.643Z,0.70
2022-09-28T05:06:01.019Z,0.90
2022-09-28T05:08:31.854Z,0.80
2022-09-28T05:11:01.662Z,0.80
2022-09-28T05:13:32.812Z,0.70
2022-09-28T05:16:05.227Z,0.80
2022-09-28T05:18:34.501Z,0.63
2022-09-28T05:21:03.685Z,1.03
2022-09-28T05:23:35.015Z,0.90
2022-09-28T05:26:03.949Z,0.70
2022-09-28T05:28:34.834Z,0.90
2022-09-28T05:31:05.510Z,0.87
2022-09-28T05:33:34.673Z,0.87
2022-09-28T05:36:03.852Z,1.60
2022-09-28T05:38:34.007Z,0.70
2022-09-28T05:41:06.551Z,0.80
2022-09-28T05:43:36.583Z,0.87
2022-09-28T05:46:05.220Z,1.00
2022-09-28T05:48:34.369Z,1.17
2022-09-28T05:51:02.956Z,0.80
2022-09-28T05:53:31.276Z,0.90
2022-09-28T05:56:04.480Z,1.10
2022-09-28T05:58:32.884Z,1.03
2022-09-28T06:01:03.984Z,0.90
2022-09-28T06:03:32.612Z,1.00
2022-09-28T06:06:03.383Z,0.93
2022-09-28T06:08:34.336Z,1.00
2022-09-28T06:11:04.820Z,0.90
2022-09-28T06:13:33.482Z,1.20
2022-09-28T06:16:07.270Z,1.13
2022-09-28T06:18:36.350Z,0.93
2022-09-28T06:21:06.202Z,0.80
2022-09-28T06:23:48.235Z,0.90
2022-09-28T06:26:19.641Z,0.97
2022-09-28T06:28:49.180Z,1.13
2022-09-28T06:31:18.253Z,0.93
2022-09-28T06:33:47.458Z,0.97
2022-09-28T06:36:20.993Z,1.00
2022-09-28T06:39:04.044Z,1.20
2022-09-28T06:41:35.250Z,0.80
2022-09-28T06:44:04.514Z,1.00
2022-09-28T06:46:41.209Z,0.90
2022-09-28T06:49:09.714Z,0.90
2022-09-28T06:51:37.943Z,1.10
2022-09-28T06:54:06.368Z,1.00
2022-09-28T06:56:37.065Z,1.10
2022-09-28T06:59:05.222Z,0.70
2022-09-28T07:01:35.789Z,0.80
2022-09-28T07:04:05.184Z,0.80
2022-09-28T07:06:34.260Z,1.00
2022-09-28T07:09:23.653Z,0.90
2022-09-28T07:11:58.130Z,0.70
2022-09-28T07:14:44.352Z,0.90
2022-09-28T07:17:15.956Z,1.00
2022-09-28T07:19:45.143Z,0.83
2022-09-28T07:22:18.989Z,1.40
2022-09-28T07:24:50.155Z,0.90
2022-09-28T07:27:21.893Z,0.83
2022-09-28T07:29:53.883Z,0.77
2022-09-28T07:32:22.436Z,0.90
2022-09-28T07:34:52.486Z,0.87
2022-09-28T07:37:24.336Z,0.70
2022-09-28T07:40:15.764Z,0.70
2022-09-28T07:42:46.719Z,0.80
2022-09-28T07:45:15.456Z,0.60
2022-09-28T07:47:44.285Z,0.70
2022-09-28T07:50:13.716Z,0.63
2022-09-28T07:52:44.460Z,0.70
2022-09-28T07:55:14.262Z,0.70
2022-09-28T07:57:44.421Z,0.70
2022-09-28T08:00:15.911Z,0.93
2022-09-28T08:02:44.537Z,0.80
2022-09-28T08:05:13.503Z,0.50
2022-09-28T08:07:41.835Z,0.87
2022-09-28T08:10:10.525Z,0.90
2022-09-28T08:12:40.707Z,0.70
2022-09-28T08:15:10.513Z,1.00
2022-09-28T08:17:40.058Z,0.63
2022-09-28T08:20:26.472Z,0.70
2022-09-28T08:22:54.578Z,0.80
2022-09-28T08:25:22.987Z,0.60
2022-09-28T08:27:51.038Z,0.70
2022-09-28T08:30:20.101Z,0.70
2022-09-28T08:32:50.420Z,0.87
2022-09-28T08:35:18.945Z,0.60
2022-09-28T08:37:55.461Z,0.70
2022-09-28T08:40:26.113Z,0.70
2022-09-28T08:42:58.635Z,0.90
2022-09-28T08:45:29.315Z,0.90
2022-09-28T08:48:21.537Z,0.90
2022-09-28T08:50:57.968Z,0.80
2022-09-28T08:53:40.900Z,0.80
2022-09-28T08:56:27.942Z,1.00
2022-09-28T08:59:02.546Z,0.70
2022-09-28T09:01:37.447Z,0.80
2022-09-28T09:04:09.907Z,1.10
2022-09-28T09:06:53.415Z,1.00
2022-09-28T09:09:31.483Z,0.70
2022-09-28T09:12:09.159Z,1.00
2022-09-28T09:15:22.228Z,1.30
2022-09-28T09:18:01.051Z,0.60
2022-09-28T09:20:41.552Z,0.60
2022-09-28T09:23:18.021Z,0.80
2022-09-28T09:25:51.819Z,0.80
2022-09-28T09:28:46.194Z,0.70
2022-09-28T09:31:27.514Z,0.70
2022-09-28T09:34:14.190Z,0.90
2022-09-28T09:37:11.421Z,0.80
2022-09-28T09:39:54.307Z,0.50
2022-09-28T09:42:35.793Z,0.97
2022-09-28T09:45:47.611Z,0.90
2022-09-28T09:48:22.947Z,0.60
2022-09-28T09:50:54.205Z,0.90
2022-09-28T09:53:29.208Z,0.90
2022-09-28T09:56:03.659Z,0.97
2022-09-28T09:58:37.838Z,1.10
2022-09-28T10:01:10.371Z,1.50
2022-09-28T10:03:43.963Z,0.90
2022-09-28T10:06:17.339Z,1.00
2022-09-28T10:08:51.945Z,1.03
2022-09-28T10:11:24.446Z,0.80
2022-09-28T10:13:52.724Z,1.20
2022-09-28T10:16:21.350Z,1.10
2022-09-28T10:18:50.863Z,2.43
2022-09-28T10:21:23.318Z,1.60
2022-09-28T10:23:59.969Z,1.10
2022-09-28T10:26:36.317Z,1.20
2022-09-28T10:29:08.005Z,1.10
2022-09-28T10:31:41.620Z,1.23
2022-09-28T10:34:14.428Z,1.47
2022-09-28T10:36:53.169Z,1.67
2022-09-28T10:39:33.296Z,1.50
2022-09-28T10:42:06.164Z,1.23
2022-09-28T10:44:39.914Z,1.43
2022-09-28T10:47:10.623Z,1.43
2022-09-28T10:49:47.263Z,1.10
2022-09-28T10:52:55.448Z,1.50
2022-09-28T10:58:47.681Z,1.47
2022-09-28T11:04:23.818Z,1.50
2022-09-28T11:19:31.654Z,1.40
2022-09-28T11:22:45.298Z,1.47
2022-09-28T12:39:14.813Z,1.40
2022-09-28T12:41:51.573Z,1.43
2022-09-28T12:44:41.741Z,1.50
2022-09-28T12:47:29.881Z,1.90
2022-09-28T12:50:40.813Z,1.47
2022-09-28T12:53:41.858Z,1.50
2022-09-28T12:56:22.823Z,1.70
2022-09-28T12:59:05.334Z,1.90
2022-09-28T13:01:51.726Z,2.03
2022-09-28T13:04:44.755Z,2.00
2022-09-28T13:07:21.519Z,1.83
2022-09-28T13:10:15.060Z,2.00
2022-09-28T13:13:27.683Z,2.07
2022-09-28T13:19:26.162Z,2.47
2022-09-28T13:22:06.687Z,2.00
2022-09-28T13:33:09.413Z,2.17
2022-09-28T13:35:48.585Z,1.63
2022-09-28T13:38:50.780Z,1.67
2022-09-28T13:41:35.762Z,1.73
2022-09-28T13:44:47.335Z,1.80
2022-09-28T13:56:38.767Z,2.60
2022-09-28T13:59:18.613Z,2.90
2022-09-28T14:01:56.645Z,2.80
2022-09-28T14:11:40.633Z,2.20
2022-09-28T14:15:00.535Z,2.23
2022-09-28T14:18:25.216Z,2.20
2022-09-28T14:21:26.094Z,2.07
2022-09-28T14:30:56.308Z,1.83
2022-09-28T14:33:48.387Z,1.60
2022-09-28T14:47:02.487Z,2.23
2022-09-28T14:50:20.015Z,2.10
2022-09-28T14:53:04.939Z,1.97
2022-09-28T14:55:59.668Z,2.47
2022-09-28T14:58:42.736Z,2.57
2022-09-28T15:01:24.785Z,2.10
2022-09-28T15:04:04.862Z,2.53
2022-09-28T15:06:48.537Z,2.50
2022-09-28T15:09:43.616Z,2.47
2022-09-28T15:12:26.185Z,2.80
2022-09-28T15:15:11.418Z,2.20
2022-09-28T15:17:54.312Z,2.47
2022-09-28T15:20:30.565Z,2.20
2022-09-28T15:25:54.192Z,2.87
2022-09-28T15:28:54.383Z,2.63
2022-09-28T15:32:19.329Z,2.47
2022-09-28T15:34:55.631Z,2.93
2022-09-28T15:37:29.777Z,2.50
2022-09-28T15:40:12.649Z,2.67
2022-09-28T15:42:42.082Z,2.07
2022-09-28T15:45:32.960Z,2.77
2022-09-28T15:48:22.829Z,2.37
2022-09-28T15:51:05.937Z,2.77
2022-09-28T15:53:35.237Z,2.53
2022-09-28T15:56:10.512Z,2.03
2022-09-28T15:58:39.950Z,2.37
2022-09-28T16:01:29.443Z,2.20
2022-09-28T16:03:58.287Z,2.43
2022-09-28T16:06:28.359Z,2.50
2022-09-28T16:08:57.861Z,2.33
2022-09-28T16:14:28.071Z,2.33
2022-09-28T16:17:03.642Z,2.73
2022-09-28T16:19:43.349Z,2.07
2022-09-28T16:25:16.491Z,2.30
2022-09-28T16:28:00.149Z,2.47
2022-09-28T16:30:34.578Z,2.50
2022-09-28T16:33:06.139Z,2.17
2022-09-28T16:36:06.818Z,2.30
2022-09-28T16:41:43.526Z,2.17
2022-09-28T16:44:21.291Z,2.37
2022-09-28T16:46:52.508Z,2.73
2022-09-28T16:49:21.391Z,2.30
2022-09-28T16:51:49.915Z,2.47
2022-09-28T17:02:46.780Z,2.17
2022-09-28T17:05:24.802Z,2.20
2022-09-28T17:08:20.156Z,2.40
2022-09-28T17:13:49.049Z,2.43
2022-09-28T17:16:43.551Z,2.40
2022-09-28T17:19:21.051Z,2.03
2022-09-28T17:21:49.674Z,2.40
2022-09-28T17:24:18.725Z,2.33
2022-09-28T17:26:47.963Z,2.43
2022-09-28T17:29:18.071Z,2.50
2022-09-28T17:31:48.317Z,2.87
2022-09-28T17:34:19.730Z,2.67
2022-09-28T17:36:49.151Z,2.53
2022-09-28T17:39:20.176Z,2.60
2022-09-28T17:41:48.755Z,2.30
2022-09-28T17:48:04.227Z,2.57
2022-09-28T17:53:20.126Z,2.73
2022-09-28T17:55:49.535Z,3.20
2022-09-28T17:58:19.822Z,2.67
2022-09-28T18:00:51.187Z,2.40
2022-09-28T18:03:20.659Z,2.70
2022-09-28T18:05:53.923Z,2.57
2022-09-28T18:08:22.981Z,2.93
2022-09-28T18:10:52.125Z,2.80
2022-09-28T18:13:20.863Z,2.80
2022-09-28T18:15:52.286Z,3.57
2022-09-28T18:18:21.201Z,2.90
2022-09-28T18:20:51.857Z,2.87
2022-09-28T18:23:21.632Z,2.53
2022-09-28T18:25:50.299Z,2.80
2022-09-28T18:28:19.245Z,1.90
2022-09-28T18:31:02.607Z,2.67
2022-09-28T18:33:34.012Z,2.40
2022-09-28T18:36:06.834Z,2.47
2022-09-28T18:38:42.085Z,3.10
2022-09-28T18:41:10.987Z,2.03
2022-09-28T18:43:39.594Z,2.20
2022-09-28T18:46:10.327Z,2.40
2022-09-28T18:48:40.766Z,2.20
2022-09-28T18:51:12.085Z,2.10
2022-09-28T18:53:41.291Z,2.30
2022-09-28T18:56:11.721Z,2.30
2022-09-28T18:58:41.959Z,2.33
2022-09-28T19:01:29.381Z,2.23
2022-09-28T19:04:02.460Z,2.20
2022-09-28T19:06:34.569Z,2.43
2022-09-28T19:09:07.667Z,1.90
2022-09-28T19:11:36.517Z,2.10
2022-09-28T19:14:06.166Z,2.63
2022-09-28T19:16:34.797Z,2.20
2022-09-28T19:19:03.309Z,2.77
2022-09-28T19:21:33.499Z,2.77
2022-09-28T19:24:02.647Z,2.30
2022-09-28T19:26:31.616Z,2.03
2022-09-28T19:29:00.101Z,1.60
2022-09-28T19:31:28.614Z,2.13
2022-09-28T19:33:56.883Z,1.90
2022-09-28T19:36:28.414Z,1.93
2022-09-28T19:39:03.215Z,2.00
2022-09-28T19:41:44.468Z,2.17
2022-09-28T19:44:15.891Z,2.20
2022-09-28T19:46:44.331Z,2.30
2022-09-28T19:49:14.162Z,2.10
2022-09-28T19:52:11.010Z,1.97
2022-09-28T19:54:36.576Z,1.80
2022-09-28T19:57:07.569Z,1.90
2022-09-28T19:59:36.618Z,1.90
2022-09-28T20:02:05.211Z,1.70
2022-09-28T20:04:33.385Z,1.90
2022-09-28T20:07:01.758Z,1.80
2022-09-28T20:09:30.172Z,2.13
2022-09-28T20:12:00.384Z,1.97
2022-09-28T20:14:34.077Z,2.03
2022-09-28T20:17:05.902Z,2.07
2022-09-28T20:19:35.068Z,2.03
2022-09-28T20:22:03.640Z,2.20
2022-09-28T20:24:32.100Z,1.87
2022-09-28T20:27:02.598Z,1.80
2022-09-28T20:29:33.703Z,1.70
2022-09-28T20:32:03.794Z,1.90
2022-09-28T20:34:33.492Z,1.60
2022-09-28T20:37:01.875Z,1.73
2022-09-28T20:39:29.970Z,1.50
2022-09-28T20:41:58.058Z,1.70
2022-09-28T20:44:27.484Z,1.40
2022-09-28T20:46:56.727Z,1.40
2022-09-28T20:49:24.919Z,1.50
2022-09-28T20:51:53.290Z,1.60
2022-09-28T20:54:23.331Z,1.70
2022-09-28T20:56:52.799Z,1.40
2022-09-28T20:59:29.740Z,1.50
2022-09-28T21:02:00.349Z,1.50
2022-09-28T21:04:29.080Z,1.50
2022-09-28T21:07:00.522Z,1.63
2022-09-28T21:09:30.077Z,2.00
2022-09-28T21:11:58.774Z,1.53
2022-09-28T21:14:28.285Z,1.60
2022-09-28T21:16:57.849Z,1.27
2022-09-28T21:19:29.535Z,1.33
2022-09-28T21:21:58.128Z,1.43
2022-09-28T21:24:27.734Z,1.30
2022-09-28T21:26:56.219Z,1.30
2022-09-28T21:29:24.794Z,1.57
2022-09-28T21:31:53.390Z,1.10
2022-09-28T21:34:22.588Z,1.40
2022-09-28T21:36:53.111Z,1.10
2022-09-28T21:39:21.687Z,1.10
2022-09-28T21:41:50.380Z,1.10
2022-09-28T21:44:18.922Z,1.10
2022-09-28T21:46:48.292Z,1.17
2022-09-28T21:49:17.125Z,1.00
2022-09-28T21:51:47.206Z,1.13
2022-09-28T21:54:17.684Z,1.40
2022-09-28T21:56:46.376Z,1.20
2022-09-28T21:59:14.989Z,0.90
2022-09-28T22:01:44.539Z,1.20
2022-09-28T22:04:13.237Z,1.20
2022-09-28T22:06:41.860Z,1.40
2022-09-28T22:09:10.468Z,1.60
2022-09-28T22:11:40.669Z,1.27
2022-09-28T22:14:09.025Z,1.30
2022-09-28T22:16:37.697Z,1.40
2022-09-28T22:19:06.194Z,1.30
2022-09-28T22:21:35.991Z,1.57
2022-09-28T22:24:06.530Z,1.20
2022-09-28T22:26:36.811Z,1.10
2022-09-28T22:29:08.946Z,1.67
2022-09-28T22:31:39.278Z,1.77
2022-09-28T22:34:08.396Z,2.00
2022-09-28T22:36:39.260Z,1.67
2022-09-28T22:39:07.854Z,1.33
2022-09-28T22:41:36.240Z,1.40
2022-09-28T22:44:06.282Z,1.63
2022-09-28T22:46:34.987Z,1.40
2022-09-28T22:49:03.627Z,1.40
2022-09-28T22:51:32.565Z,1.27
2022-09-28T22:54:01.358Z,1.53
2022-09-28T22:56:29.798Z,1.20
2022-09-28T22:58:58.268Z,1.30
2022-09-28T23:01:30.042Z,1.07
2022-09-28T23:03:59.649Z,1.63
2022-09-28T23:06:30.806Z,1.23
2022-09-28T23:08:59.207Z,1.33
2022-09-28T23:11:27.784Z,1.17
2022-09-28T23:13:56.972Z,1.40
2022-09-28T23:16:26.697Z,1.50
2022-09-28T23:18:57.092Z,1.40
2022-09-28T23:21:26.842Z,1.20
2022-09-28T23:23:57.740Z,1.70
2022-09-28T23:26:30.434Z,1.40
2022-09-28T23:28:59.508Z,1.60
2022-09-28T23:31:29.737Z,1.40
2022-09-28T23:34:03.579Z,1.40
2022-09-28T23:36:32.590Z,1.70
2022-09-28T23:39:01.562Z,1.40
2022-09-28T23:41:30.187Z,1.70
2022-09-28T23:43:58.729Z,1.90
2022-09-28T23:46:27.134Z,1.70
2022-09-28T23:48:55.544Z,1.50
2022-09-28T23:51:25.588Z,2.00
2022-09-28T23:53:54.247Z,1.47
2022-09-28T23:56:22.856Z,1.80
2022-09-28T23:58:51.344Z,1.80
